sensor_id;sensor_type;location;lat;lon;timestamp;pressure;altitude;pressure_sealevel;temperature
20103;BMP180;10210;52.284;9.892;2022-11-14T00:00:37;100931.00;;;11.20
20103;BMP180;10210;52.284;9.892;2022-11-14T00:03:05;100928.00;;;11.30
20103;BMP180;10210;52.284;9.892;2022-11-14T00:05:31;100930.00;;;11.30
20103;BMP180;10210;52.284;9.892;2022-11-14T00:07:57;100926.00;;;11.30
20103;BMP180;10210;52.284;9.892;2022-11-14T00:10:24;100938.00;;;11.30
20103;BMP180;10210;52.284;9.892;2022-11-14T00:12:49;100932.00;;;11.30
20103;BMP180;10210;52.284;9.892;2022-11-14T00:15:15;100931.00;;;11.30
20103;BMP180;10210;52.284;9.892;2022-11-14T00:17:41;100922.00;;;11.30
20103;BMP180;10210;52.284;9.892;2022-11-14T00:20:10;100916.00;;;11.30
20103;BMP180;10210;52.284;9.892;2022-11-14T00:22:36;100918.00;;;11.20
20103;BMP180;10210;52.284;9.892;2022-11-14T00:25:03;100910.00;;;11.20
20103;BMP180;10210;52.284;9.892;2022-11-14T00:27:29;100911.00;;;11.20
20103;BMP180;10210;52.284;9.892;2022-11-14T00:29:54;100912.00;;;11.10
20103;BMP180;10210;52.284;9.892;2022-11-14T00:32:20;100910.00;;;11.10
20103;BMP180;10210;52.284;9.892;2022-11-14T00:34:48;100916.00;;;11.10
20103;BMP180;10210;52.284;9.892;2022-11-14T00:37:13;100908.00;;;11.10
20103;BMP180;10210;52.284;9.892;2022-11-14T00:39:39;100906.00;;;11.10
20103;BMP180;10210;52.284;9.892;2022-11-14T00:42:05;100901.00;;;11.10
20103;BMP180;10210;52.284;9.892;2022-11-14T00:44:31;100902.00;;;11.10
20103;BMP180;10210;52.284;9.892;2022-11-14T00:46:56;100899.00;;;11.00
20103;BMP180;10210;52.284;9.892;2022-11-14T00:49:22;100888.00;;;11.00
20103;BMP180;10210;52.284;9.892;2022-11-14T00:51:47;100880.00;;;11.10
20103;BMP180;10210;52.284;9.892;2022-11-14T00:54:13;100893.00;;;11.00
20103;BMP180;10210;52.284;9.892;2022-11-14T00:56:39;100891.00;;;11.00
20103;BMP180;10210;52.284;9.892;2022-11-14T00:59:04;100887.00;;;11.00
20103;BMP180;10210;52.284;9.892;2022-11-14T01:01:30;100894.00;;;11.00
20103;BMP180;10210;52.284;9.892;2022-11-14T01:03:56;100893.00;;;11.00
20103;BMP180;10210;52.284;9.892;2022-11-14T01:06:22;100883.00;;;11.00
20103;BMP180;10210;52.284;9.892;2022-11-14T01:08:50;100875.00;;;11.00
20103;BMP180;10210;52.284;9.892;2022-11-14T01:11:19;100882.00;;;11.00
20103;BMP180;10210;52.284;9.892;2022-11-14T01:13:45;100876.00;;;11.00
20103;BMP180;10210;52.284;9.892;2022-11-14T01:16:11;100869.00;;;11.00
20103;BMP180;10210;52.284;9.892;2022-11-14T01:18:38;100864.00;;;10.90
20103;BMP180;10210;52.284;9.892;2022-11-14T01:21:08;100863.00;;;10.90
20103;BMP180;10210;52.284;9.892;2022-11-14T01:23:34;100859.00;;;10.90
20103;BMP180;10210;52.284;9.892;2022-11-14T01:26:07;100853.00;;;10.80
20103;BMP180;10210;52.284;9.892;2022-11-14T01:28:34;100870.00;;;10.80
20103;BMP180;10210;52.284;9.892;2022-11-14T01:31:26;100861.00;;;10.80
20103;BMP180;10210;52.284;9.892;2022-11-14T01:33:53;100850.00;;;10.80
20103;BMP180;10210;52.284;9.892;2022-11-14T01:36:19;100850.00;;;10.80
20103;BMP180;10210;52.284;9.892;2022-11-14T01:38:46;100849.00;;;10.80
20103;BMP180;10210;52.284;9.892;2022-11-14T01:41:15;100851.00;;;10.80
20103;BMP180;10210;52.284;9.892;2022-11-14T01:43:42;100837.00;;;10.70
20103;BMP180;10210;52.284;9.892;2022-11-14T01:49:21;100837.00;;;10.60
20103;BMP180;10210;52.284;9.892;2022-11-14T01:51:57;100832.00;;;10.60
20103;BMP180;10210;52.284;9.892;2022-11-14T01:54:38;100828.00;;;10.50
20103;BMP180;10210;52.284;9.892;2022-11-14T01:57:06;100817.00;;;10.50
20103;BMP180;10210;52.284;9.892;2022-11-14T01:59:42;100818.00;;;10.50
20103;BMP180;10210;52.284;9.892;2022-11-14T02:02:19;100820.00;;;10.60
20103;BMP180;10210;52.284;9.892;2022-11-14T02:04:51;100823.00;;;10.50
20103;BMP180;10210;52.284;9.892;2022-11-14T02:07:19;100814.00;;;10.60
20103;BMP180;10210;52.284;9.892;2022-11-14T02:09:46;100823.00;;;10.60
20103;BMP180;10210;52.284;9.892;2022-11-14T02:12:16;100810.00;;;10.60
20103;BMP180;10210;52.284;9.892;2022-11-14T02:14:44;100818.00;;;10.60
20103;BMP180;10210;52.284;9.892;2022-11-14T02:17:13;100819.00;;;10.60
20103;BMP180;10210;52.284;9.892;2022-11-14T02:19:55;100810.00;;;10.60
20103;BMP180;10210;52.284;9.892;2022-11-14T02:22:22;100801.00;;;10.60
20103;BMP180;10210;52.284;9.892;2022-11-14T02:24:48;100817.00;;;10.60
20103;BMP180;10210;52.284;9.892;2022-11-14T02:27:15;100805.00;;;10.60
20103;BMP180;10210;52.284;9.892;2022-11-14T02:29:41;100806.00;;;10.60
20103;BMP180;10210;52.284;9.892;2022-11-14T02:32:07;100795.00;;;10.60
20103;BMP180;10210;52.284;9.892;2022-11-14T02:34:33;100800.00;;;10.60
20103;BMP180;10210;52.284;9.892;2022-11-14T02:36:59;100802.00;;;10.60
20103;BMP180;10210;52.284;9.892;2022-11-14T02:39:24;100808.00;;;10.60
20103;BMP180;10210;52.284;9.892;2022-11-14T02:41:51;100803.00;;;10.60
20103;BMP180;10210;52.284;9.892;2022-11-14T02:44:18;100794.00;;;10.60
20103;BMP180;10210;52.284;9.892;2022-11-14T02:46:44;100806.00;;;10.60
20103;BMP180;10210;52.284;9.892;2022-11-14T02:49:09;100799.00;;;10.50
20103;BMP180;10210;52.284;9.892;2022-11-14T02:51:35;100797.00;;;10.50
20103;BMP180;10210;52.284;9.892;2022-11-14T02:54:01;100789.00;;;10.50
20103;BMP180;10210;52.284;9.892;2022-11-14T02:56:27;100789.00;;;10.50
20103;BMP180;10210;52.284;9.892;2022-11-14T02:58:53;100792.00;;;10.50
20103;BMP180;10210;52.284;9.892;2022-11-14T03:01:18;100789.00;;;10.40
20103;BMP180;10210;52.284;9.892;2022-11-14T03:03:45;100784.00;;;10.40
20103;BMP180;10210;52.284;9.892;2022-11-14T03:06:10;100780.00;;;10.40
20103;BMP180;10210;52.284;9.892;2022-11-14T03:08:36;100785.00;;;10.40
20103;BMP180;10210;52.284;9.892;2022-11-14T03:11:07;100772.00;;;10.40
20103;BMP180;10210;52.284;9.892;2022-11-14T03:13:33;100774.00;;;10.40
20103;BMP180;10210;52.284;9.892;2022-11-14T03:16:08;100768.00;;;10.40
20103;BMP180;10210;52.284;9.892;2022-11-14T03:18:34;100757.00;;;10.40
20103;BMP180;10210;52.284;9.892;2022-11-14T03:21:16;100768.00;;;10.40
20103;BMP180;10210;52.284;9.892;2022-11-14T03:23:42;100768.00;;;10.40
20103;BMP180;10210;52.284;9.892;2022-11-14T03:26:10;100773.00;;;10.40
20103;BMP180;10210;52.284;9.892;2022-11-14T03:28:37;100766.00;;;10.40
20103;BMP180;10210;52.284;9.892;2022-11-14T03:31:04;100759.00;;;10.40
20103;BMP180;10210;52.284;9.892;2022-11-14T03:33:31;100757.00;;;10.40
20103;BMP180;10210;52.284;9.892;2022-11-14T03:35:57;100754.00;;;10.40
20103;BMP180;10210;52.284;9.892;2022-11-14T03:38:22;100756.00;;;10.40
20103;BMP180;10210;52.284;9.892;2022-11-14T03:40:51;100759.00;;;10.40
20103;BMP180;10210;52.284;9.892;2022-11-14T03:43:20;100757.00;;;10.40
20103;BMP180;10210;52.284;9.892;2022-11-14T03:45:47;100741.00;;;10.40
20103;BMP180;10210;52.284;9.892;2022-11-14T03:48:13;100742.00;;;10.40
20103;BMP180;10210;52.284;9.892;2022-11-14T03:50:40;100742.00;;;10.40
20103;BMP180;10210;52.284;9.892;2022-11-14T03:53:07;100734.00;;;10.40
20103;BMP180;10210;52.284;9.892;2022-11-14T03:55:33;100726.00;;;10.40
20103;BMP180;10210;52.284;9.892;2022-11-14T03:57:59;100718.00;;;10.40
20103;BMP180;10210;52.284;9.892;2022-11-14T04:00:24;100710.00;;;10.40
20103;BMP180;10210;52.284;9.892;2022-11-14T04:02:54;100717.00;;;10.30
20103;BMP180;10210;52.284;9.892;2022-11-14T04:05:21;100709.00;;;10.30
20103;BMP180;10210;52.284;9.892;2022-11-14T04:07:47;100701.00;;;10.30
20103;BMP180;10210;52.284;9.892;2022-11-14T04:10:13;100702.00;;;10.30
20103;BMP180;10210;52.284;9.892;2022-11-14T04:12:38;100698.00;;;10.30
20103;BMP180;10210;52.284;9.892;2022-11-14T04:15:04;100698.00;;;10.30
20103;BMP180;10210;52.284;9.892;2022-11-14T04:17:31;100704.00;;;10.30
20103;BMP180;10210;52.284;9.892;2022-11-14T04:19:56;100698.00;;;10.20
20103;BMP180;10210;52.284;9.892;2022-11-14T04:22:22;100697.00;;;10.20
20103;BMP180;10210;52.284;9.892;2022-11-14T04:24:48;100705.00;;;10.20
20103;BMP180;10210;52.284;9.892;2022-11-14T04:27:13;100706.00;;;10.20
20103;BMP180;10210;52.284;9.892;2022-11-14T04:29:39;100700.00;;;10.30
20103;BMP180;10210;52.284;9.892;2022-11-14T04:32:04;100694.00;;;10.20
20103;BMP180;10210;52.284;9.892;2022-11-14T04:34:30;100696.00;;;10.20
20103;BMP180;10210;52.284;9.892;2022-11-14T04:36:56;100690.00;;;10.30
20103;BMP180;10210;52.284;9.892;2022-11-14T04:39:21;100695.00;;;10.30
20103;BMP180;10210;52.284;9.892;2022-11-14T04:41:47;100699.00;;;10.30
20103;BMP180;10210;52.284;9.892;2022-11-14T04:44:13;100691.00;;;10.30
20103;BMP180;10210;52.284;9.892;2022-11-14T04:46:38;100686.00;;;10.30
20103;BMP180;10210;52.284;9.892;2022-11-14T04:49:04;100690.00;;;10.30
20103;BMP180;10210;52.284;9.892;2022-11-14T04:51:29;100686.00;;;10.30
20103;BMP180;10210;52.284;9.892;2022-11-14T04:53:55;100682.00;;;10.40
20103;BMP180;10210;52.284;9.892;2022-11-14T04:56:21;100678.00;;;10.40
20103;BMP180;10210;52.284;9.892;2022-11-14T04:58:48;100681.00;;;10.40
20103;BMP180;10210;52.284;9.892;2022-11-14T05:01:14;100664.00;;;10.40
20103;BMP180;10210;52.284;9.892;2022-11-14T05:03:40;100668.00;;;10.30
20103;BMP180;10210;52.284;9.892;2022-11-14T05:06:06;100663.00;;;10.30
20103;BMP180;10210;52.284;9.892;2022-11-14T05:08:33;100679.00;;;10.30
20103;BMP180;10210;52.284;9.892;2022-11-14T05:10:59;100668.00;;;10.30
20103;BMP180;10210;52.284;9.892;2022-11-14T05:13:24;100671.00;;;10.30
20103;BMP180;10210;52.284;9.892;2022-11-14T05:15:50;100663.00;;;10.20
20103;BMP180;10210;52.284;9.892;2022-11-14T05:18:16;100676.00;;;10.30
20103;BMP180;10210;52.284;9.892;2022-11-14T05:20:42;100667.00;;;10.20
20103;BMP180;10210;52.284;9.892;2022-11-14T05:23:22;100671.00;;;10.20
20103;BMP180;10210;52.284;9.892;2022-11-14T05:26:02;100663.00;;;10.20
20103;BMP180;10210;52.284;9.892;2022-11-14T05:28:29;100673.00;;;10.30
20103;BMP180;10210;52.284;9.892;2022-11-14T05:31:07;100663.00;;;10.30
20103;BMP180;10210;52.284;9.892;2022-11-14T05:33:34;100668.00;;;10.30
20103;BMP180;10210;52.284;9.892;2022-11-14T05:36:05;100668.00;;;10.30
20103;BMP180;10210;52.284;9.892;2022-11-14T05:38:32;100665.00;;;10.20
20103;BMP180;10210;52.284;9.892;2022-11-14T05:40:58;100673.00;;;10.20
20103;BMP180;10210;52.284;9.892;2022-11-14T05:43:24;100673.00;;;10.20
20103;BMP180;10210;52.284;9.892;2022-11-14T05:45:51;100670.00;;;10.20
20103;BMP180;10210;52.284;9.892;2022-11-14T05:48:16;100672.00;;;10.30
20103;BMP180;10210;52.284;9.892;2022-11-14T05:50:42;100671.00;;;10.30
20103;BMP180;10210;52.284;9.892;2022-11-14T05:53:09;100672.00;;;10.20
20103;BMP180;10210;52.284;9.892;2022-11-14T05:55:35;100679.00;;;10.30
20103;BMP180;10210;52.284;9.892;2022-11-14T05:58:00;100662.00;;;10.30
20103;BMP180;10210;52.284;9.892;2022-11-14T06:00:26;100657.00;;;10.20
20103;BMP180;10210;52.284;9.892;2022-11-14T06:02:53;100659.00;;;10.30
20103;BMP180;10210;52.284;9.892;2022-11-14T06:05:21;100655.00;;;10.20
20103;BMP180;10210;52.284;9.892;2022-11-14T06:07:48;100641.00;;;10.20
20103;BMP180;10210;52.284;9.892;2022-11-14T06:10:19;100650.00;;;10.20
20103;BMP180;10210;52.284;9.892;2022-11-14T06:12:44;100649.00;;;10.20
20103;BMP180;10210;52.284;9.892;2022-11-14T06:15:10;100652.00;;;10.20
20103;BMP180;10210;52.284;9.892;2022-11-14T06:17:35;100654.00;;;10.10
20103;BMP180;10210;52.284;9.892;2022-11-14T06:20:01;100648.00;;;10.10
20103;BMP180;10210;52.284;9.892;2022-11-14T06:22:27;100657.00;;;10.20
20103;BMP180;10210;52.284;9.892;2022-11-14T06:24:52;100646.00;;;10.10
20103;BMP180;10210;52.284;9.892;2022-11-14T06:27:19;100649.00;;;10.20
20103;BMP180;10210;52.284;9.892;2022-11-14T06:29:45;100640.00;;;10.20
20103;BMP180;10210;52.284;9.892;2022-11-14T06:32:10;100636.00;;;10.10
20103;BMP180;10210;52.284;9.892;2022-11-14T06:34:36;100633.00;;;10.20
20103;BMP180;10210;52.284;9.892;2022-11-14T06:37:03;100624.00;;;10.10
20103;BMP180;10210;52.284;9.892;2022-11-14T06:39:29;100636.00;;;10.10
20103;BMP180;10210;52.284;9.892;2022-11-14T06:41:55;100639.00;;;10.10
20103;BMP180;10210;52.284;9.892;2022-11-14T06:44:21;100641.00;;;10.10
20103;BMP180;10210;52.284;9.892;2022-11-14T06:46:47;100643.00;;;10.20
20103;BMP180;10210;52.284;9.892;2022-11-14T06:49:12;100643.00;;;10.20
20103;BMP180;10210;52.284;9.892;2022-11-14T06:51:38;100634.00;;;10.20
20103;BMP180;10210;52.284;9.892;2022-11-14T06:54:03;100635.00;;;10.20
20103;BMP180;10210;52.284;9.892;2022-11-14T06:56:29;100643.00;;;10.20
20103;BMP180;10210;52.284;9.892;2022-11-14T06:58:55;100648.00;;;10.20
20103;BMP180;10210;52.284;9.892;2022-11-14T07:01:23;100637.00;;;10.20
20103;BMP180;10210;52.284;9.892;2022-11-14T07:03:52;100637.00;;;10.30
20103;BMP180;10210;52.284;9.892;2022-11-14T07:06:23;100651.00;;;10.30
20103;BMP180;10210;52.284;9.892;2022-11-14T07:08:51;100650.00;;;10.30
20103;BMP180;10210;52.284;9.892;2022-11-14T07:11:21;100645.00;;;10.30
20103;BMP180;10210;52.284;9.892;2022-11-14T07:13:56;100651.00;;;10.30
20103;BMP180;10210;52.284;9.892;2022-11-14T07:18:57;100647.00;;;10.30
20103;BMP180;10210;52.284;9.892;2022-11-14T07:21:25;100646.00;;;10.20
20103;BMP180;10210;52.284;9.892;2022-11-14T07:23:52;100645.00;;;10.20
20103;BMP180;10210;52.284;9.892;2022-11-14T07:26:17;100648.00;;;10.30
20103;BMP180;10210;52.284;9.892;2022-11-14T07:28:44;100635.00;;;10.30
20103;BMP180;10210;52.284;9.892;2022-11-14T07:31:13;100616.00;;;10.30
20103;BMP180;10210;52.284;9.892;2022-11-14T07:33:40;100637.00;;;10.30
20103;BMP180;10210;52.284;9.892;2022-11-14T07:36:07;100639.00;;;10.30
20103;BMP180;10210;52.284;9.892;2022-11-14T07:38:34;100642.00;;;10.30
20103;BMP180;10210;52.284;9.892;2022-11-14T07:41:04;100644.00;;;10.30
20103;BMP180;10210;52.284;9.892;2022-11-14T07:43:31;100654.00;;;10.30
20103;BMP180;10210;52.284;9.892;2022-11-14T07:46:01;100655.00;;;10.30
20103;BMP180;10210;52.284;9.892;2022-11-14T07:48:28;100655.00;;;10.30
20103;BMP180;10210;52.284;9.892;2022-11-14T07:50:59;100646.00;;;10.30
20103;BMP180;10210;52.284;9.892;2022-11-14T07:53:25;100650.00;;;10.40
20103;BMP180;10210;52.284;9.892;2022-11-14T07:55:51;100642.00;;;10.30
20103;BMP180;10210;52.284;9.892;2022-11-14T07:58:17;100639.00;;;10.40
20103;BMP180;10210;52.284;9.892;2022-11-14T08:00:43;100631.00;;;10.30
20103;BMP180;10210;52.284;9.892;2022-11-14T08:03:09;100637.00;;;10.40
20103;BMP180;10210;52.284;9.892;2022-11-14T08:05:35;100637.00;;;10.40
20103;BMP180;10210;52.284;9.892;2022-11-14T08:08:01;100622.00;;;10.40
20103;BMP180;10210;52.284;9.892;2022-11-14T08:10:27;100627.00;;;10.40
20103;BMP180;10210;52.284;9.892;2022-11-14T08:13:01;100636.00;;;10.30
20103;BMP180;10210;52.284;9.892;2022-11-14T08:15:28;100637.00;;;10.30
20103;BMP180;10210;52.284;9.892;2022-11-14T08:17:58;100626.00;;;10.30
20103;BMP180;10210;52.284;9.892;2022-11-14T08:20:26;100631.00;;;10.30
20103;BMP180;10210;52.284;9.892;2022-11-14T08:22:53;100624.00;;;10.40
20103;BMP180;10210;52.284;9.892;2022-11-14T08:25:18;100640.00;;;10.40
20103;BMP180;10210;52.284;9.892;2022-11-14T08:27:44;100643.00;;;10.40
20103;BMP180;10210;52.284;9.892;2022-11-14T08:30:11;100643.00;;;10.40
20103;BMP180;10210;52.284;9.892;2022-11-14T08:32:36;100644.00;;;10.40
20103;BMP180;10210;52.284;9.892;2022-11-14T08:35:03;100651.00;;;10.40
20103;BMP180;10210;52.284;9.892;2022-11-14T08:37:28;100652.00;;;10.40
20103;BMP180;10210;52.284;9.892;2022-11-14T08:39:54;100644.00;;;10.40
20103;BMP180;10210;52.284;9.892;2022-11-14T08:42:20;100655.00;;;10.40
20103;BMP180;10210;52.284;9.892;2022-11-14T08:44:45;100654.00;;;10.40
20103;BMP180;10210;52.284;9.892;2022-11-14T08:47:11;100647.00;;;10.40
20103;BMP180;10210;52.284;9.892;2022-11-14T08:49:36;100645.00;;;10.40
20103;BMP180;10210;52.284;9.892;2022-11-14T08:52:02;100641.00;;;10.40
20103;BMP180;10210;52.284;9.892;2022-11-14T08:54:28;100643.00;;;10.40
20103;BMP180;10210;52.284;9.892;2022-11-14T08:56:54;100634.00;;;10.40
20103;BMP180;10210;52.284;9.892;2022-11-14T08:59:19;100628.00;;;10.40
20103;BMP180;10210;52.284;9.892;2022-11-14T09:01:45;100634.00;;;10.40
20103;BMP180;10210;52.284;9.892;2022-11-14T09:04:11;100623.00;;;10.40
20103;BMP180;10210;52.284;9.892;2022-11-14T09:06:36;100621.00;;;10.40
20103;BMP180;10210;52.284;9.892;2022-11-14T09:09:02;100631.00;;;10.40
20103;BMP180;10210;52.284;9.892;2022-11-14T09:11:28;100628.00;;;10.40
20103;BMP180;10210;52.284;9.892;2022-11-14T09:13:54;100627.00;;;10.40
20103;BMP180;10210;52.284;9.892;2022-11-14T09:16:19;100647.00;;;10.40
20103;BMP180;10210;52.284;9.892;2022-11-14T09:18:45;100635.00;;;10.40
20103;BMP180;10210;52.284;9.892;2022-11-14T09:21:11;100631.00;;;10.40
20103;BMP180;10210;52.284;9.892;2022-11-14T09:23:37;100636.00;;;10.50
20103;BMP180;10210;52.284;9.892;2022-11-14T09:26:05;100638.00;;;10.50
20103;BMP180;10210;52.284;9.892;2022-11-14T09:28:31;100624.00;;;10.50
20103;BMP180;10210;52.284;9.892;2022-11-14T09:31:15;100635.00;;;10.50
20103;BMP180;10210;52.284;9.892;2022-11-14T09:33:41;100639.00;;;10.50
20103;BMP180;10210;52.284;9.892;2022-11-14T09:36:10;100614.00;;;10.50
20103;BMP180;10210;52.284;9.892;2022-11-14T09:38:43;100600.00;;;10.50
20103;BMP180;10210;52.284;9.892;2022-11-14T09:41:25;100599.00;;;10.50
20103;BMP180;10210;52.284;9.892;2022-11-14T09:44:19;100586.00;;;10.40
20103;BMP180;10210;52.284;9.892;2022-11-14T09:47:34;100578.00;;;10.40
20103;BMP180;10210;52.284;9.892;2022-11-14T09:50:25;100569.00;;;10.40
20103;BMP180;10210;52.284;9.892;2022-11-14T09:52:56;100566.00;;;10.50
20103;BMP180;10210;52.284;9.892;2022-11-14T09:55:33;100555.00;;;10.50
20103;BMP180;10210;52.284;9.892;2022-11-14T09:58:02;100556.00;;;10.50
20103;BMP180;10210;52.284;9.892;2022-11-14T10:01:04;100545.00;;;10.50
20103;BMP180;10210;52.284;9.892;2022-11-14T10:03:50;100531.00;;;10.50
20103;BMP180;10210;52.284;9.892;2022-11-14T10:12:24;100552.00;;;10.50
20103;BMP180;10210;52.284;9.892;2022-11-14T10:17:32;100546.00;;;10.60
20103;BMP180;10210;52.284;9.892;2022-11-14T10:20:43;100552.00;;;10.60
20103;BMP180;10210;52.284;9.892;2022-11-14T10:23:40;100552.00;;;10.60
20103;BMP180;10210;52.284;9.892;2022-11-14T10:26:30;100543.00;;;10.60
20103;BMP180;10210;52.284;9.892;2022-11-14T10:32:16;100558.00;;;10.60
20103;BMP180;10210;52.284;9.892;2022-11-14T10:34:54;100555.00;;;10.70
20103;BMP180;10210;52.284;9.892;2022-11-14T10:37:36;100556.00;;;10.70
20103;BMP180;10210;52.284;9.892;2022-11-14T10:40:23;100536.00;;;10.70
20103;BMP180;10210;52.284;9.892;2022-11-14T10:42:59;100535.00;;;10.80
20103;BMP180;10210;52.284;9.892;2022-11-14T10:45:40;100546.00;;;10.80
20103;BMP180;10210;52.284;9.892;2022-11-14T10:48:39;100544.00;;;10.80
20103;BMP180;10210;52.284;9.892;2022-11-14T10:51:28;100548.00;;;10.90
20103;BMP180;10210;52.284;9.892;2022-11-14T10:56:49;100555.00;;;10.90
20103;BMP180;10210;52.284;9.892;2022-11-14T10:59:15;100547.00;;;11.00
20103;BMP180;10210;52.284;9.892;2022-11-14T11:01:44;100539.00;;;11.00
20103;BMP180;10210;52.284;9.892;2022-11-14T11:06:52;100549.00;;;11.00
20103;BMP180;10210;52.284;9.892;2022-11-14T11:09:23;100534.00;;;11.10
20103;BMP180;10210;52.284;9.892;2022-11-14T11:12:18;100536.00;;;11.10
20103;BMP180;10210;52.284;9.892;2022-11-14T11:14:46;100529.00;;;11.20
20103;BMP180;10210;52.284;9.892;2022-11-14T11:17:21;100523.00;;;11.30
20103;BMP180;10210;52.284;9.892;2022-11-14T11:19:48;100526.00;;;11.40
20103;BMP180;10210;52.284;9.892;2022-11-14T11:22:41;100524.00;;;11.40
20103;BMP180;10210;52.284;9.892;2022-11-14T11:25:25;100537.00;;;11.40
20103;BMP180;10210;52.284;9.892;2022-11-14T11:28:22;100539.00;;;11.40
20103;BMP180;10210;52.284;9.892;2022-11-14T11:31:00;100531.00;;;11.40
20103;BMP180;10210;52.284;9.892;2022-11-14T11:33:37;100532.00;;;11.40
20103;BMP180;10210;52.284;9.892;2022-11-14T11:36:20;100528.00;;;11.40
20103;BMP180;10210;52.284;9.892;2022-11-14T11:38:48;100507.00;;;11.40
20103;BMP180;10210;52.284;9.892;2022-11-14T11:41:30;100508.00;;;11.50
20103;BMP180;10210;52.284;9.892;2022-11-14T11:44:03;100507.00;;;11.50
20103;BMP180;10210;52.284;9.892;2022-11-14T11:46:54;100499.00;;;11.50
20103;BMP180;10210;52.284;9.892;2022-11-14T11:52:02;100507.00;;;11.60
20103;BMP180;10210;52.284;9.892;2022-11-14T11:57:17;100520.00;;;11.70
20103;BMP180;10210;52.284;9.892;2022-11-14T11:59:49;100515.00;;;11.70
20103;BMP180;10210;52.284;9.892;2022-11-14T12:02:26;100510.00;;;11.70
20103;BMP180;10210;52.284;9.892;2022-11-14T12:04:55;100499.00;;;11.70
20103;BMP180;10210;52.284;9.892;2022-11-14T12:10:30;100495.00;;;11.90
20103;BMP180;10210;52.284;9.892;2022-11-14T12:13:11;100477.00;;;11.90
20103;BMP180;10210;52.284;9.892;2022-11-14T12:16:45;100491.00;;;11.80
20103;BMP180;10210;52.284;9.892;2022-11-14T12:19:49;100481.00;;;11.80
20103;BMP180;10210;52.284;9.892;2022-11-14T12:29:41;100484.00;;;11.90
20103;BMP180;10210;52.284;9.892;2022-11-14T12:31:47;100477.00;;;11.90
20103;BMP180;10210;52.284;9.892;2022-11-14T12:34:32;100490.00;;;11.90
20103;BMP180;10210;52.284;9.892;2022-11-14T12:36:59;100485.00;;;12.00
20103;BMP180;10210;52.284;9.892;2022-11-14T12:39:31;100483.00;;;12.00
20103;BMP180;10210;52.284;9.892;2022-11-14T12:42:06;100476.00;;;12.00
20103;BMP180;10210;52.284;9.892;2022-11-14T12:44:38;100473.00;;;12.00
20103;BMP180;10210;52.284;9.892;2022-11-14T13:04:10;100441.00;;;12.20
20103;BMP180;10210;52.284;9.892;2022-11-14T13:07:27;100455.00;;;12.20
20103;BMP180;10210;52.284;9.892;2022-11-14T13:10:13;100443.00;;;12.30
20103;BMP180;10210;52.284;9.892;2022-11-14T13:13:05;100437.00;;;12.30
20103;BMP180;10210;52.284;9.892;2022-11-14T13:15:52;100427.00;;;12.40
20103;BMP180;10210;52.284;9.892;2022-11-14T13:27:28;100433.00;;;12.50
20103;BMP180;10210;52.284;9.892;2022-11-14T13:29:55;100429.00;;;12.60
20103;BMP180;10210;52.284;9.892;2022-11-14T13:37:53;100437.00;;;12.70
20103;BMP180;10210;52.284;9.892;2022-11-14T13:43:06;100423.00;;;12.70
20103;BMP180;10210;52.284;9.892;2022-11-14T13:45:56;100427.00;;;12.80
20103;BMP180;10210;52.284;9.892;2022-11-14T13:51:08;100429.00;;;12.80
20103;BMP180;10210;52.284;9.892;2022-11-14T13:53:39;100423.00;;;12.80
20103;BMP180;10210;52.284;9.892;2022-11-14T14:10:53;100390.00;;;12.90
20103;BMP180;10210;52.284;9.892;2022-11-14T14:16:49;100394.00;;;13.10
20103;BMP180;10210;52.284;9.892;2022-11-14T14:20:04;100398.00;;;13.10
20103;BMP180;10210;52.284;9.892;2022-11-14T14:22:49;100392.00;;;13.20
20103;BMP180;10210;52.284;9.892;2022-11-14T14:25:42;100398.00;;;13.20
20103;BMP180;10210;52.284;9.892;2022-11-14T14:28:49;100392.00;;;13.30
20103;BMP180;10210;52.284;9.892;2022-11-14T14:31:18;100397.00;;;13.30
20103;BMP180;10210;52.284;9.892;2022-11-14T14:33:47;100388.00;;;13.30
20103;BMP180;10210;52.284;9.892;2022-11-14T14:36:29;100380.00;;;13.30
20103;BMP180;10210;52.284;9.892;2022-11-14T14:39:20;100389.00;;;13.30
20103;BMP180;10210;52.284;9.892;2022-11-14T14:41:57;100380.00;;;13.30
20103;BMP180;10210;52.284;9.892;2022-11-14T14:44:30;100370.00;;;13.20
20103;BMP180;10210;52.284;9.892;2022-11-14T14:46:57;100375.00;;;13.20
20103;BMP180;10210;52.284;9.892;2022-11-14T14:49:36;100364.00;;;13.10
20103;BMP180;10210;52.284;9.892;2022-11-14T14:52:29;100362.00;;;13.10
20103;BMP180;10210;52.284;9.892;2022-11-14T14:54:57;100344.00;;;13.10
20103;BMP180;10210;52.284;9.892;2022-11-14T14:57:23;100349.00;;;13.00
20103;BMP180;10210;52.284;9.892;2022-11-14T15:00:16;100346.00;;;13.00
20103;BMP180;10210;52.284;9.892;2022-11-14T15:02:42;100340.00;;;12.90
20103;BMP180;10210;52.284;9.892;2022-11-14T15:05:08;100335.00;;;12.90
20103;BMP180;10210;52.284;9.892;2022-11-14T15:07:38;100349.00;;;12.80
20103;BMP180;10210;52.284;9.892;2022-11-14T15:10:06;100338.00;;;12.80
20103;BMP180;10210;52.284;9.892;2022-11-14T15:12:35;100345.00;;;12.70
20103;BMP180;10210;52.284;9.892;2022-11-14T15:15:02;100335.00;;;12.70
20103;BMP180;10210;52.284;9.892;2022-11-14T15:17:28;100322.00;;;12.60
20103;BMP180;10210;52.284;9.892;2022-11-14T15:19:54;100312.00;;;12.50
20103;BMP180;10210;52.284;9.892;2022-11-14T15:22:25;100313.00;;;12.50
20103;BMP180;10210;52.284;9.892;2022-11-14T15:27:54;100318.00;;;12.40
20103;BMP180;10210;52.284;9.892;2022-11-14T15:30:30;100314.00;;;12.40
20103;BMP180;10210;52.284;9.892;2022-11-14T15:33:02;100312.00;;;12.40
20103;BMP180;10210;52.284;9.892;2022-11-14T15:35:36;100308.00;;;12.30
20103;BMP180;10210;52.284;9.892;2022-11-14T15:40:39;100309.00;;;12.20
20103;BMP180;10210;52.284;9.892;2022-11-14T15:46:41;100294.00;;;12.10
20103;BMP180;10210;52.284;9.892;2022-11-14T15:51:51;100280.00;;;12.10
20103;BMP180;10210;52.284;9.892;2022-11-14T15:54:26;100284.00;;;12.00
20103;BMP180;10210;52.284;9.892;2022-11-14T15:56:58;100282.00;;;12.00
20103;BMP180;10210;52.284;9.892;2022-11-14T15:59:25;100279.00;;;12.00
20103;BMP180;10210;52.284;9.892;2022-11-14T16:02:03;100282.00;;;12.00